Time;durP1;ratioP1;P1;durP2;ratioP2;P2;SDS_P1;SDS_P2;PMS_P1;PMS_P2;Temp;Humidity;BMP_temperature;BMP_pressure;BME280_temperature;BME280_humidity;BME280_pressure;Samples;Min_cycle;Max_cycle;Signal;HPM_P1;HPM_P2
2022/05/20 00:01:09;;;;;;;8.17;6.70;;;19.50;98.50;;;;;;5077038;28;20404;-44
2022/05/20 00:03:36;;;;;;;7.43;6.73;;;19.50;98.50;;;;;;5076823;28;20434;-43
2022/05/20 00:06:02;;;;;;;6.70;6.20;;;19.60;98.40;;;;;;5076952;28;20422;-44
2022/05/20 00:08:28;;;;;;;7.57;6.90;;;19.60;98.30;;;;;;5076383;28;20420;-44
2022/05/20 00:10:54;;;;;;;8.33;7.27;;;19.60;98.30;;;;;;5077027;28;20444;-44
2022/05/20 00:13:24;;;;;;;7.43;6.63;;;19.50;98.20;;;;;;5075822;28;20921;-44
2022/05/20 00:15:50;;;;;;;7.50;6.80;;;19.50;98.40;;;;;;5076588;28;20423;-44
2022/05/20 00:18:16;;;;;;;8.00;7.10;;;19.50;98.50;;;;;;5077686;28;20413;-44
2022/05/20 00:20:41;;;;;;;7.67;6.97;;;19.50;98.50;;;;;;5081217;28;20457;-43
2022/05/20 00:23:07;;;;;;;7.93;6.40;;;19.50;98.40;;;;;;5080864;28;20209;-44
2022/05/20 00:25:48;;;;;;;7.63;6.90;;;19.40;98.50;;;;;;5080404;28;20178;-44
2022/05/20 00:28:13;;;;;;;7.37;6.67;;;19.40;98.60;;;;;;5080948;28;20434;-44
2022/05/20 00:30:40;;;;;;;7.10;6.50;;;19.30;98.70;;;;;;5080582;28;20417;-44
2022/05/20 00:33:05;;;;;;;8.20;6.40;;;19.30;98.60;;;;;;5080305;28;20230;-44
2022/05/20 00:35:31;;;;;;;6.97;6.30;;;19.30;98.80;;;;;;5080761;28;20413;-44
2022/05/20 00:37:57;;;;;;;7.57;6.80;;;19.30;98.80;;;;;;5080652;28;20427;-44
2022/05/20 00:40:24;;;;;;;6.70;6.00;;;19.30;98.70;;;;;;5081686;28;20176;-45
2022/05/20 00:42:50;;;;;;;7.60;6.83;;;19.40;98.50;;;;;;5100857;28;20180;-44
2022/05/20 00:45:16;;;;;;;8.00;7.30;;;19.50;98.50;;;;;;5100879;28;20403;-44
2022/05/20 00:47:42;;;;;;;7.43;6.73;;;19.50;98.40;;;;;;5100632;28;20187;-44
2022/05/20 00:50:13;;;;;;;6.77;6.20;;;19.50;98.30;;;;;;5100627;28;20431;-44
2022/05/20 00:52:43;;;;;;;6.63;6.03;;;19.50;98.10;;;;;;5082877;28;20576;-44
2022/05/20 00:55:13;;;;;;;7.60;6.97;;;19.50;98.10;;;;;;5082588;28;20474;-44
2022/05/20 00:57:53;;;;;;;7.33;6.73;;;19.50;98.10;;;;;;5082940;28;20523;-44
2022/05/20 01:00:24;;;;;;;6.77;6.07;;;19.50;98.00;;;;;;5082940;28;20411;-44
2022/05/20 01:02:54;;;;;;;9.30;6.87;;;19.50;97.90;;;;;;5100367;28;20433;-44
2022/05/20 01:05:25;;;;;;;7.43;6.50;;;19.60;97.90;;;;;;5100659;28;20446;-41
2022/05/20 01:07:51;;;;;;;8.03;7.33;;;19.60;97.90;;;;;;5099561;28;20674;-44
2022/05/20 01:10:17;;;;;;;7.40;6.70;;;19.60;97.90;;;;;;5100337;28;20430;-44
2022/05/20 01:12:42;;;;;;;7.93;7.20;;;19.50;97.90;;;;;;5099974;28;20473;-44
2022/05/20 01:15:08;;;;;;;6.67;6.17;;;19.50;97.90;;;;;;5099661;28;20206;-44
2022/05/20 01:17:34;;;;;;;7.03;6.30;;;19.50;97.90;;;;;;5100078;28;20178;-44
2022/05/20 01:20:00;;;;;;;6.70;6.00;;;19.50;98.00;;;;;;5100283;28;20415;-44
2022/05/20 01:22:53;;;;;;;6.87;6.20;;;19.50;98.00;;;;;;5099895;28;20419;-44
2022/05/20 01:25:19;;;;;;;7.07;6.47;;;19.40;98.00;;;;;;5099233;28;20172;-44
2022/05/20 01:27:45;;;;;;;8.70;6.87;;;19.40;98.00;;;;;;5098152;28;20428;-44
2022/05/20 01:30:14;;;;;;;7.03;6.37;;;19.40;98.10;;;;;;5097936;28;20273;-44
2022/05/20 01:32:40;;;;;;;7.20;6.50;;;19.40;98.10;;;;;;5081568;28;20885;-44
2022/05/20 01:35:14;;;;;;;6.03;5.53;;;19.40;98.00;;;;;;5081492;28;20494;-44
2022/05/20 01:37:40;;;;;;;8.20;6.60;;;19.40;98.00;;;;;;5100038;28;20693;-44
2022/05/20 01:40:07;;;;;;;6.93;6.33;;;19.40;98.00;;;;;;5081736;28;20412;-44
2022/05/20 01:43:05;;;;;;;7.93;6.47;;;19.40;97.90;;;;;;5099740;28;20186;-44
2022/05/20 01:45:42;;;;;;;8.00;7.30;;;19.40;97.90;;;;;;5082274;28;20822;-44
2022/05/20 01:48:28;;;;;;;7.60;6.90;;;19.40;98.00;;;;;;5082185;28;20434;-44
2022/05/20 01:50:55;;;;;;;7.63;6.83;;;19.40;98.00;;;;;;5081413;28;20814;-44
2022/05/20 01:53:53;;;;;;;7.60;6.80;;;19.40;98.10;;;;;;5081639;28;20474;-44
2022/05/20 01:56:23;;;;;;;6.90;6.30;;;19.30;98.10;;;;;;5097444;28;20829;-44
2022/05/20 01:59:19;;;;;;;7.13;6.30;;;19.30;98.20;;;;;;5081497;28;20426;-44
2022/05/20 02:01:59;;;;;;;8.30;7.30;;;19.30;98.20;;;;;;5099699;28;20419;-44
2022/05/20 02:04:38;;;;;;;7.00;6.30;;;19.30;98.20;;;;;;5081493;28;20439;-44
2022/05/20 02:07:07;;;;;;;7.13;6.53;;;19.30;98.10;;;;;;5099139;28;20423;-44
2022/05/20 02:09:44;;;;;;;7.80;7.10;;;19.30;98.10;;;;;;5080467;28;20426;-44
2022/05/20 02:12:11;;;;;;;7.30;6.60;;;19.30;98.10;;;;;;5098130;28;20447;-44
2022/05/20 02:14:50;;;;;;;7.80;7.00;;;19.30;98.10;;;;;;5080109;28;20470;-44
2022/05/20 02:17:20;;;;;;;7.10;6.40;;;19.30;98.10;;;;;;5063336;28;20459;-44
2022/05/20 02:19:52;;;;;;;6.60;6.00;;;19.20;98.20;;;;;;5097543;28;20418;-44
2022/05/20 02:22:23;;;;;;;7.73;7.03;;;19.20;98.10;;;;;;5097052;28;20449;-44
2022/05/20 02:24:49;;;;;;;7.23;6.43;;;19.20;98.10;;;;;;5098265;28;20698;-44
2022/05/20 02:27:23;;;;;;;7.10;6.43;;;19.20;98.10;;;;;;5080475;28;20708;-44
2022/05/20 02:30:08;;;;;;;7.20;6.50;;;19.20;98.20;;;;;;5080904;28;20412;-44
2022/05/20 02:32:41;;;;;;;6.93;6.33;;;19.20;98.10;;;;;;5080429;28;20812;-44
2022/05/20 02:35:07;;;;;;;7.13;6.53;;;19.20;98.10;;;;;;5098886;28;20467;-44
2022/05/20 02:37:35;;;;;;;7.80;7.10;;;19.10;98.10;;;;;;5098856;28;20716;-44
2022/05/20 02:40:01;;;;;;;6.93;6.30;;;19.10;98.20;;;;;;5098486;28;20177;-44
2022/05/20 02:42:31;;;;;;;7.60;6.83;;;19.10;98.20;;;;;;5096856;28;20427;-44
2022/05/20 02:44:59;;;;;;;7.30;6.60;;;19.10;98.20;;;;;;5097592;28;20409;-44
2022/05/20 02:47:26;;;;;;;7.53;6.93;;;19.10;98.20;;;;;;5079514;28;20423;-44
2022/05/20 02:49:52;;;;;;;7.80;7.10;;;19.10;98.40;;;;;;5097100;28;20724;-44
2022/05/20 02:52:17;;;;;;;7.53;6.93;;;19.10;98.40;;;;;;5096731;28;20424;-44
2022/05/20 02:54:43;;;;;;;7.90;7.20;;;19.10;98.60;;;;;;5097726;28;20181;-44
2022/05/20 02:57:09;;;;;;;7.60;6.90;;;19.10;98.70;;;;;;5097323;28;20443;-44
2022/05/20 03:05:03;;;;;;;8.20;7.50;;;19.10;98.80;;;;;;5077716;28;20690;-44
2022/05/20 03:07:29;;;;;;;8.03;7.23;;;19.10;98.70;;;;;;5077772;28;20419;-44
2022/05/20 03:09:54;;;;;;;7.83;7.23;;;19.10;98.70;;;;;;5076057;28;20179;-46
2022/05/20 03:12:20;;;;;;;10.33;8.47;;;19.20;98.70;;;;;;5058786;28;20199;-43
2022/05/20 03:14:46;;;;;;;8.23;7.13;;;19.20;98.60;;;;;;5075628;28;20178;-41
2022/05/20 03:17:12;;;;;;;9.27;8.17;;;19.20;98.60;;;;;;5075709;28;20179;-43
2022/05/20 03:19:38;;;;;;;7.63;7.03;;;19.20;98.30;;;;;;5075976;28;20712;-43
2022/05/20 03:22:05;;;;;;;8.50;7.70;;;19.20;98.00;;;;;;5075640;28;20425;-43
2022/05/20 03:24:31;;;;;;;8.00;7.40;;;19.20;97.70;;;;;;5075138;28;20475;-44
2022/05/20 03:26:56;;;;;;;12.60;8.77;;;19.10;97.70;;;;;;5075688;28;20419;-44
2022/05/20 03:29:22;;;;;;;7.67;6.97;;;19.20;97.50;;;;;;5075719;28;20521;-43
2022/05/20 03:31:48;;;;;;;8.30;7.50;;;19.20;97.50;;;;;;5057876;28;20237;-43
2022/05/20 03:34:14;;;;;;;7.80;7.10;;;19.20;97.20;;;;;;5075844;28;20921;-44
2022/05/20 03:36:45;;;;;;;7.37;6.67;;;19.30;97.20;;;;;;5075742;28;20463;-44
2022/05/20 03:39:13;;;;;;;8.53;7.67;;;19.20;97.20;;;;;;5076560;28;20508;-43
2022/05/20 03:41:39;;;;;;;8.07;7.37;;;19.20;97.10;;;;;;5076509;28;20827;-43
2022/05/20 03:44:08;;;;;;;8.83;7.93;;;19.20;97.30;;;;;;5076421;28;20434;-44
2022/05/20 03:46:38;;;;;;;9.00;7.63;;;19.20;97.30;;;;;;5076524;28;20752;-43
2022/05/20 03:49:04;;;;;;;9.40;7.67;;;19.30;97.40;;;;;;5075958;28;20743;-43
2022/05/20 03:51:30;;;;;;;8.23;7.53;;;19.30;97.10;;;;;;5076511;28;20463;-44
2022/05/20 03:53:55;;;;;;;7.93;7.33;;;19.40;97.00;;;;;;5078771;28;20615;-44
2022/05/20 03:56:21;;;;;;;8.30;6.60;;;19.40;96.90;;;;;;5079753;28;20168;-44
2022/05/20 03:58:46;;;;;;;7.67;6.97;;;19.50;96.60;;;;;;5079834;28;20257;-43
2022/05/20 04:03:56;;;;;;;7.00;6.40;;;19.50;96.70;;;;;;5080014;28;20220;-43
2022/05/20 04:06:22;;;;;;;10.43;7.30;;;19.60;96.60;;;;;;5079999;28;20452;-44
2022/05/20 04:08:48;;;;;;;7.80;7.17;;;19.70;96.00;;;;;;5079894;28;20565;-43
2022/05/20 04:11:15;;;;;;;7.33;6.73;;;19.70;95.50;;;;;;5079646;28;20196;-44
2022/05/20 04:13:44;;;;;;;7.20;6.60;;;19.80;95.20;;;;;;5080146;28;20477;-43
2022/05/20 04:16:12;;;;;;;7.60;7.00;;;19.80;95.10;;;;;;5061711;28;20423;-44
2022/05/20 04:18:38;;;;;;;6.73;6.23;;;19.80;95.00;;;;;;5078889;28;20430;-43
2022/05/20 04:21:05;;;;;;;7.13;6.53;;;19.80;95.10;;;;;;5077113;28;20425;-43
2022/05/20 04:23:31;;;;;;;8.10;6.00;;;19.80;95.00;;;;;;5077080;28;20275;-43
2022/05/20 04:25:57;;;;;;;6.07;5.47;;;19.90;95.20;;;;;;5077096;28;20917;-44
2022/05/20 04:28:22;;;;;;;6.90;6.30;;;19.90;94.90;;;;;;5077983;28;20431;-43
2022/05/20 04:30:50;;;;;;;7.97;6.30;;;19.90;94.80;;;;;;5077774;28;20708;-43
2022/05/20 04:33:16;;;;;;;7.83;7.00;;;20.00;94.80;;;;;;5059741;28;20239;-44
2022/05/20 04:35:42;;;;;;;6.57;6.07;;;20.00;94.50;;;;;;5076887;28;20440;-43
2022/05/20 04:38:07;;;;;;;6.77;6.10;;;20.10;93.90;;;;;;5075930;28;20184;-43
2022/05/20 04:40:33;;;;;;;6.53;5.93;;;20.10;94.00;;;;;;5076765;28;20171;-44
2022/05/20 04:48:27;;;;;;;6.47;5.97;;;20.20;93.80;;;;;;5075981;28;20444;-43
2022/05/20 04:50:52;;;;;;;6.50;6.00;;;20.20;93.70;;;;;;5076805;28;20519;-43
2022/05/20 04:56:02;;;;;;;5.70;5.10;;;20.40;93.60;;;;;;5078609;28;20220;-44
2022/05/20 04:58:28;;;;;;;6.20;5.60;;;20.50;93.00;;;;;;5077662;28;20456;-43
2022/05/20 05:00:58;;;;;;;6.33;5.63;;;20.60;92.70;;;;;;5077196;28;20188;-43
2022/05/20 05:03:23;;;;;;;6.20;5.70;;;20.60;92.50;;;;;;5076378;28;20439;-42
2022/05/20 05:05:49;;;;;;;6.17;5.57;;;20.70;92.00;;;;;;5076159;28;20414;-43
2022/05/20 05:08:16;;;;;;;5.87;5.27;;;20.70;92.10;;;;;;5077395;28;20440;-44
2022/05/20 05:10:42;;;;;;;8.83;5.80;;;20.70;91.40;;;;;;5076559;28;20181;-44
2022/05/20 05:13:09;;;;;;;6.07;5.57;;;20.80;91.50;;;;;;5074899;28;20531;-43
2022/05/20 05:15:35;;;;;;;6.10;5.60;;;20.90;91.60;;;;;;5075974;28;20418;-44
2022/05/20 05:18:11;;;;;;;6.67;5.97;;;20.80;91.60;;;;;;5075957;28;20428;-44
2022/05/20 05:20:45;;;;;;;6.80;6.10;;;20.90;91.50;;;;;;5076910;28;20728;-44
2022/05/20 05:23:10;;;;;;;6.03;5.53;;;21.10;91.50;;;;;;5077039;28;20867;-44
2022/05/20 05:25:36;;;;;;;6.80;5.87;;;21.10;91.10;;;;;;5075527;28;20554;-44
2022/05/20 05:28:03;;;;;;;6.67;6.00;;;21.20;91.30;;;;;;5072938;28;20538;-43
2022/05/20 05:30:29;;;;;;;6.43;5.83;;;21.10;91.20;;;;;;5055708;28;20418;-43
2022/05/20 05:32:55;;;;;;;5.67;5.17;;;21.10;91.30;;;;;;5082442;28;20916;-43
2022/05/20 05:35:23;;;;;;;8.80;6.00;;;21.10;91.40;;;;;;5093962;28;20498;-44
2022/05/20 05:37:49;;;;;;;6.40;5.60;;;21.20;91.50;;;;;;5093494;28;20490;-44
2022/05/20 05:40:19;;;;;;;6.50;5.90;;;21.30;91.40;;;;;;5074891;28;20416;-47
2022/05/20 05:42:45;;;;;;;6.43;5.83;;;21.40;91.40;;;;;;5093733;28;20205;-45
2022/05/20 05:45:13;;;;;;;6.03;4.83;;;21.50;91.00;;;;;;5092606;28;20427;-45
2022/05/20 05:47:38;;;;;;;6.73;6.13;;;21.60;91.00;;;;;;5090932;28;20472;-45
2022/05/20 05:50:08;;;;;;;6.10;5.53;;;21.70;91.10;;;;;;5072921;28;20431;-44
2022/05/20 05:52:35;;;;;;;6.10;5.60;;;21.80;90.40;;;;;;5093089;28;20195;-45
2022/05/20 05:55:03;;;;;;;6.77;5.57;;;21.80;90.40;;;;;;5095385;28;20463;-44
2022/05/20 05:57:29;;;;;;;5.93;5.43;;;21.70;90.50;;;;;;5095151;28;20425;-44
2022/05/20 05:59:56;;;;;;;6.40;5.80;;;21.70;90.40;;;;;;5094833;28;20439;-45
2022/05/20 06:02:21;;;;;;;6.27;5.67;;;21.60;90.30;;;;;;5096527;28;20539;-45
2022/05/20 06:04:48;;;;;;;7.30;5.97;;;21.50;90.50;;;;;;5096420;28;20517;-45
2022/05/20 06:07:14;;;;;;;9.30;5.13;;;21.40;90.60;;;;;;5095088;28;20178;-45
2022/05/20 06:09:40;;;;;;;5.43;5.03;;;21.50;90.70;;;;;;5096198;28;20432;-45
2022/05/20 06:12:06;;;;;;;6.60;5.07;;;21.70;90.70;;;;;;5096024;28;20460;-44
2022/05/20 06:14:32;;;;;;;5.47;4.97;;;21.80;90.20;;;;;;5094405;28;20465;-51
2022/05/20 06:16:57;;;;;;;7.07;6.33;;;21.90;90.20;;;;;;5095502;28;20431;-44
2022/05/20 06:19:23;;;;;;;5.70;5.30;;;22.10;89.80;;;;;;5096427;28;20183;-45
2022/05/20 06:21:49;;;;;;;5.10;4.70;;;22.20;89.80;;;;;;5076856;28;20560;-44
2022/05/20 06:24:15;;;;;;;5.97;5.47;;;22.40;89.30;;;;;;5096705;28;20896;-44
2022/05/20 06:26:48;;;;;;;6.37;5.77;;;22.50;88.20;;;;;;5098336;28;20193;-46
2022/05/20 06:29:19;;;;;;;5.57;5.07;;;22.40;87.70;;;;;;5080342;28;20488;-44
2022/05/20 06:31:56;;;;;;;6.93;6.40;;;22.60;88.10;;;;;;5085436;28;20460;-44
2022/05/20 06:40:19;;;;;;;5.70;5.17;;;23.00;86.10;;;;;;5063288;28;20770;-44
2022/05/20 06:42:44;;;;;;;6.70;6.10;;;23.20;85.60;;;;;;5056906;28;20439;-43
2022/05/20 06:45:12;;;;;;;5.40;4.90;;;23.40;84.80;;;;;;5074168;28;20448;-43
2022/05/20 06:47:39;;;;;;;5.10;4.70;;;23.60;84.30;;;;;;5053990;28;20210;-42
2022/05/20 06:50:06;;;;;;;8.57;4.70;;;23.90;83.00;;;;;;5038654;28;20436;-45
2022/05/20 06:52:32;;;;;;;5.40;4.90;;;23.70;82.50;;;;;;5036873;28;20504;-43
2022/05/20 06:54:58;;;;;;;4.97;4.57;;;24.00;81.50;;;;;;5036755;28;20433;-44
2022/05/20 06:57:26;;;;;;;5.23;4.57;;;24.00;80.40;;;;;;5035748;28;20177;-43
2022/05/20 06:59:53;;;;;;;5.03;4.33;;;23.80;80.10;;;;;;5032610;28;20203;-45
2022/05/20 07:02:18;;;;;;;5.20;4.80;;;23.70;80.70;;;;;;5035699;28;20487;-45
2022/05/20 07:04:44;;;;;;;7.43;5.57;;;23.60;80.90;;;;;;5028358;28;20445;-42
2022/05/20 07:07:10;;;;;;;4.90;4.50;;;23.80;80.40;;;;;;5035460;28;20190;-42
2022/05/20 07:09:36;;;;;;;8.13;5.33;;;23.90;79.60;;;;;;5036499;28;20188;-45
2022/05/20 07:12:02;;;;;;;5.17;4.77;;;24.00;79.40;;;;;;5036613;28;20444;-47
2022/05/20 07:14:28;;;;;;;5.30;4.90;;;24.10;79.00;;;;;;5037435;28;20478;-44
2022/05/20 07:16:54;;;;;;;5.67;5.13;;;24.10;79.30;;;;;;5035228;28;20813;-45
2022/05/20 07:19:20;;;;;;;6.30;5.80;;;24.40;78.90;;;;;;5035223;28;20181;-46
2022/05/20 07:21:46;;;;;;;6.00;5.27;;;24.50;78.40;;;;;;5035038;28;20431;-46
2022/05/20 07:24:11;;;;;;;5.07;4.67;;;24.60;78.20;;;;;;5036235;28;20246;-46
2022/05/20 07:26:37;;;;;;;6.10;5.47;;;24.70;78.40;;;;;;5037320;28;20294;-42
2022/05/20 07:29:04;;;;;;;6.17;5.57;;;24.70;77.40;;;;;;5035946;28;20182;-44
2022/05/20 07:31:30;;;;;;;6.00;5.40;;;24.80;78.50;;;;;;5035822;28;20184;-44
2022/05/20 07:33:56;;;;;;;5.83;4.83;;;24.90;78.00;;;;;;5035013;28;20925;-42
2022/05/20 07:36:22;;;;;;;5.43;4.73;;;25.20;77.80;;;;;;5033984;28;20172;-43
2022/05/20 07:38:47;;;;;;;6.70;6.10;;;25.40;76.00;;;;;;5033426;28;20468;-44
2022/05/20 07:41:13;;;;;;;5.80;5.30;;;25.50;75.80;;;;;;5033550;28;20428;-46
2022/05/20 07:43:39;;;;;;;6.27;5.33;;;25.70;75.00;;;;;;5034693;28;20247;-44
2022/05/20 07:46:05;;;;;;;5.90;5.40;;;25.80;74.10;;;;;;5034677;28;20190;-43
2022/05/20 07:48:31;;;;;;;5.80;5.23;;;25.70;74.20;;;;;;5033449;28;20426;-44
2022/05/20 07:51:00;;;;;;;6.23;5.53;;;25.80;73.50;;;;;;5033700;28;20182;-44
2022/05/20 07:53:35;;;;;;;8.43;5.73;;;25.90;73.60;;;;;;5032779;28;20708;-43
2022/05/20 07:56:13;;;;;;;6.03;5.53;;;25.90;73.50;;;;;;5016601;28;20486;-44
2022/05/20 07:59:02;;;;;;;5.80;5.30;;;26.20;73.40;;;;;;5016389;28;20426;-45
2022/05/20 08:01:30;;;;;;;7.27;5.53;;;26.30;71.80;;;;;;5033139;28;20571;-45
2022/05/20 08:06:45;;;;;;;9.10;6.17;;;26.30;71.70;;;;;;5020003;28;20551;-45
2022/05/20 08:09:10;;;;;;;6.53;5.93;;;26.60;70.90;;;;;;5001324;28;20930;-47
2022/05/20 08:11:36;;;;;;;6.27;5.70;;;26.70;69.50;;;;;;5036270;28;20193;-45
2022/05/20 08:14:02;;;;;;;6.77;6.17;;;26.80;69.50;;;;;;5035376;28;20308;-44
2022/05/20 08:16:27;;;;;;;6.47;5.97;;;26.90;68.80;;;;;;5035136;28;20255;-43
2022/05/20 08:18:53;;;;;;;6.03;5.50;;;27.10;68.60;;;;;;5036247;28;20189;-46
2022/05/20 08:21:19;;;;;;;5.70;5.20;;;27.20;68.10;;;;;;5035563;28;20256;-46
2022/05/20 08:23:46;;;;;;;6.17;5.60;;;27.50;67.30;;;;;;5036006;28;20186;-43
2022/05/20 08:26:16;;;;;;;6.50;6.00;;;27.90;66.80;;;;;;5036132;28;20428;-42
2022/05/20 08:28:43;;;;;;;6.83;5.93;;;28.30;65.40;;;;;;5038028;28;20449;-45
2022/05/20 08:31:09;;;;;;;6.97;5.97;;;28.60;62.60;;;;;;5017269;28;20422;-45
2022/05/20 08:33:35;;;;;;;8.00;6.37;;;28.70;62.00;;;;;;5047238;28;20765;-43
2022/05/20 08:36:03;;;;;;;6.90;6.30;;;28.70;60.60;;;;;;5053977;28;20185;-43
2022/05/20 08:38:29;;;;;;;6.60;6.00;;;28.60;61.90;;;;;;5061311;28;20179;-46
2022/05/20 08:40:56;;;;;;;6.67;6.00;;;28.70;61.40;;;;;;5074323;28;20505;-43
2022/05/20 08:43:25;;;;;;;6.20;5.30;;;28.90;60.60;;;;;;5059842;28;20764;-43
2022/05/20 08:45:51;;;;;;;8.07;7.27;;;29.20;60.10;;;;;;5060830;28;20736;-50
2022/05/20 08:48:18;;;;;;;5.90;5.30;;;29.20;59.60;;;;;;5077288;28;20525;-46
2022/05/20 08:50:46;;;;;;;7.20;6.60;;;29.10;59.60;;;;;;5078493;28;20403;-48
2022/05/20 08:53:22;;;;;;;6.73;6.17;;;29.00;60.10;;;;;;5078351;28;20478;-46
2022/05/20 08:55:48;;;;;;;9.47;6.10;;;28.80;60.80;;;;;;5060155;28;20767;-46
2022/05/20 08:58:21;;;;;;;7.20;6.40;;;28.70;60.80;;;;;;5077276;28;20502;-46
2022/05/20 09:00:47;;;;;;;6.63;5.90;;;28.90;61.00;;;;;;5077159;28;20783;-47
2022/05/20 09:03:13;;;;;;;7.77;6.20;;;29.00;58.40;;;;;;5075096;28;20518;-46
2022/05/20 09:05:41;;;;;;;7.60;6.40;;;29.10;57.80;;;;;;5076867;28;20570;-44
2022/05/20 09:08:28;;;;;;;6.47;5.87;;;29.10;57.70;;;;;;5075556;28;20493;-45
2022/05/20 09:10:59;;;;;;;6.57;5.80;;;29.00;56.70;;;;;;5059196;28;20532;-49
2022/05/20 09:16:18;;;;;;;7.00;6.50;;;29.40;57.20;;;;;;5072805;28;20435;-46
2022/05/20 09:18:47;;;;;;;7.43;6.40;;;29.40;56.20;;;;;;5077920;28;20879;-44
2022/05/20 09:21:38;;;;;;;7.47;6.97;;;29.50;55.80;;;;;;5057434;28;20434;-50
2022/05/20 09:24:22;;;;;;;6.70;6.07;;;29.30;56.10;;;;;;5070729;28;20927;-45
2022/05/20 09:26:50;;;;;;;8.23;6.97;;;29.40;56.20;;;;;;5078254;28;20420;-46
2022/05/20 09:29:28;;;;;;;7.43;6.73;;;29.20;56.20;;;;;;5061030;28;20430;-45
2022/05/20 09:32:00;;;;;;;7.07;6.40;;;29.20;56.00;;;;;;5076053;28;20661;-48
2022/05/20 09:34:26;;;;;;;6.80;6.10;;;29.60;54.70;;;;;;5076517;28;20525;-47
2022/05/20 09:36:57;;;;;;;7.17;6.33;;;29.70;55.40;;;;;;5077524;28;20830;-47
2022/05/20 09:39:37;;;;;;;9.67;5.80;;;29.50;54.30;;;;;;5077789;28;20281;-48
2022/05/20 09:42:23;;;;;;;7.60;6.90;;;29.30;54.70;;;;;;5058284;28;20914;-47
2022/05/20 09:44:52;;;;;;;6.40;5.90;;;29.50;55.40;;;;;;5075195;28;20443;-47
2022/05/20 09:47:27;;;;;;;6.73;6.23;;;29.70;55.10;;;;;;5076384;28;20399;-49
2022/05/20 09:49:59;;;;;;;9.50;6.13;;;30.00;53.60;;;;;;5056300;28;20431;-44
2022/05/20 09:52:41;;;;;;;6.77;6.17;;;30.40;53.00;;;;;;5056673;28;20416;-47
2022/05/20 09:55:22;;;;;;;7.90;5.80;;;30.60;53.20;;;;;;5058873;28;20839;-47
2022/05/20 09:57:48;;;;;;;6.63;6.03;;;30.80;53.10;;;;;;5075099;28;20386;-44
2022/05/20 10:00:20;;;;;;;6.70;6.20;;;30.80;52.50;;;;;;5076586;28;20446;-46
2022/05/20 10:03:18;;;;;;;7.30;6.00;;;30.60;53.10;;;;;;5076944;28;20179;-47
2022/05/20 10:05:54;;;;;;;6.83;5.93;;;31.00;51.70;;;;;;5060096;28;20497;-45
2022/05/20 10:08:31;;;;;;;6.60;5.57;;;31.40;48.60;;;;;;5077603;28;20393;-43
2022/05/20 10:11:25;;;;;;;5.77;5.23;;;31.10;45.60;;;;;;5075213;28;20462;-46
2022/05/20 10:14:10;;;;;;;6.23;4.73;;;31.00;45.50;;;;;;5076328;28;20467;-45
2022/05/20 10:16:57;;;;;;;6.53;5.93;;;30.90;45.00;;;;;;5057909;28;20408;-47
2022/05/20 10:19:40;;;;;;;7.50;5.03;;;31.10;44.70;;;;;;5058542;28;20503;-44
2022/05/20 10:22:31;;;;;;;5.67;5.17;;;31.00;44.50;;;;;;5058591;28;20421;-46
2022/05/20 10:25:21;;;;;;;5.17;4.67;;;31.10;44.40;;;;;;5076074;28;20412;-44
2022/05/20 10:28:02;;;;;;;7.43;6.10;;;31.40;44.00;;;;;;5075533;28;20728;-47
2022/05/20 10:33:28;;;;;;;5.83;5.30;;;31.40;43.70;;;;;;5059675;28;20552;-44
2022/05/20 10:36:03;;;;;;;6.07;5.57;;;31.40;43.40;;;;;;5076965;28;20936;-48
2022/05/20 10:38:44;;;;;;;5.87;5.27;;;31.40;44.00;;;;;;5058566;28;20426;-44
2022/05/20 10:41:16;;;;;;;6.30;5.80;;;31.40;43.30;;;;;;5075924;28;20425;-46
2022/05/20 10:49:41;;;;;;;6.10;5.57;;;31.60;42.90;;;;;;5074623;28;20430;-49
2022/05/20 10:52:09;;;;;;;7.13;5.50;;;32.00;42.40;;;;;;5057016;28;20526;-47
2022/05/20 10:54:52;;;;;;;11.40;6.40;;;32.20;42.00;;;;;;5056964;28;20950;-46
2022/05/20 10:57:52;;;;;;;8.03;5.73;;;32.20;42.70;;;;;;5057238;28;20430;-46
2022/05/20 11:00:26;;;;;;;6.90;5.90;;;32.60;42.40;;;;;;5056680;28;20403;-44
2022/05/20 11:03:18;;;;;;;7.60;5.93;;;32.90;41.70;;;;;;5057604;28;20417;-49
2022/05/20 11:06:30;;;;;;;6.73;6.10;;;33.30;41.00;;;;;;5074155;28;20422;-48
2022/05/20 11:09:08;;;;;;;6.60;6.00;;;33.30;40.60;;;;;;4993988;28;20860;-49
2022/05/20 11:11:38;;;;;;;5.80;5.30;;;33.30;41.00;;;;;;5053835;28;20443;-46
2022/05/20 11:14:42;;;;;;;5.70;5.20;;;33.30;40.50;;;;;;5056690;28;20540;-47
2022/05/20 11:17:34;;;;;;;8.00;6.10;;;33.00;40.70;;;;;;5063313;28;20406;-47
2022/05/20 11:20:17;;;;;;;7.03;5.80;;;33.20;40.50;;;;;;5070694;28;20419;-47
2022/05/20 11:23:04;;;;;;;6.33;5.57;;;33.10;39.90;;;;;;5056031;28;20715;-47
2022/05/20 11:25:57;;;;;;;6.10;5.47;;;33.20;40.60;;;;;;5056148;28;20391;-46
2022/05/20 11:28:50;;;;;;;6.43;5.67;;;33.80;39.90;;;;;;5056685;28;20481;-47
2022/05/20 11:31:48;;;;;;;6.40;5.20;;;34.10;39.40;;;;;;5055370;28;20702;-46
2022/05/20 11:34:43;;;;;;;5.40;4.90;;;34.40;39.90;;;;;;5073754;28;21057;-44
2022/05/20 11:37:34;;;;;;;6.33;5.60;;;34.50;38.60;;;;;;5073572;28;20479;-44
2022/05/20 11:40:08;;;;;;;6.10;5.60;;;34.60;38.70;;;;;;5073775;28;20427;-47
2022/05/20 11:43:12;;;;;;;6.20;5.70;;;33.90;38.60;;;;;;5073344;28;20408;-42
2022/05/20 11:45:56;;;;;;;5.40;4.90;;;33.70;38.60;;;;;;5075647;28;20406;-46
2022/05/20 11:48:48;;;;;;;8.40;5.23;;;33.80;38.80;;;;;;5074427;28;20401;-46
2022/05/20 11:51:37;;;;;;;6.63;5.67;;;34.00;38.40;;;;;;5075811;28;20411;-46
2022/05/20 11:54:32;;;;;;;9.00;5.97;;;33.90;38.50;;;;;;5056504;28;20507;-45
2022/05/20 11:57:01;;;;;;;7.70;5.43;;;33.80;39.30;;;;;;5057778;28;20486;-44
2022/05/20 11:59:48;;;;;;;7.33;5.70;;;33.50;39.40;;;;;;5075971;28;20388;-45
2022/05/20 12:02:14;;;;;;;6.70;5.77;;;34.00;38.80;;;;;;5072366;28;20412;-44
2022/05/20 12:04:40;;;;;;;6.20;5.10;;;34.00;38.30;;;;;;5055839;28;20396;-44
2022/05/20 12:07:21;;;;;;;5.67;5.07;;;33.90;38.50;;;;;;5074554;28;20394;-47
2022/05/20 12:09:56;;;;;;;7.60;5.00;;;34.20;38.20;;;;;;5073744;28;20678;-49
2022/05/20 12:12:27;;;;;;;5.50;4.97;;;34.80;37.60;;;;;;5071820;28;20787;-47
2022/05/20 12:15:11;;;;;;;6.80;5.80;;;34.70;37.30;;;;;;5074213;28;20539;-46
2022/05/20 12:17:49;;;;;;;6.33;5.40;;;34.50;37.50;;;;;;5078671;28;20385;-46
2022/05/20 12:26:21;;;;;;;8.07;5.00;;;35.00;37.00;;;;;;5078651;28;20388;-45
2022/05/20 12:28:46;;;;;;;8.57;5.70;;;34.70;36.30;;;;;;5078309;28;20402;-46
2022/05/20 12:31:16;;;;;;;5.87;4.83;;;34.60;36.50;;;;;;5059517;28;20442;-45
2022/05/20 12:34:00;;;;;;;5.27;4.77;;;34.70;36.40;;;;;;5078701;28;20317;-47
2022/05/20 12:36:28;;;;;;;6.73;4.97;;;34.30;35.50;;;;;;5078383;28;20469;-45
2022/05/20 12:39:06;;;;;;;6.97;5.23;;;34.10;35.50;;;;;;5077592;28;20426;-47
2022/05/20 12:41:49;;;;;;;6.50;5.30;;;34.60;35.40;;;;;;5079003;28;20396;-46
2022/05/20 12:44:17;;;;;;;7.10;5.67;;;35.00;35.40;;;;;;5078712;28;20399;-44
2022/05/20 12:47:04;;;;;;;6.50;5.10;;;34.60;35.20;;;;;;5078414;28;20754;-48
2022/05/20 12:49:48;;;;;;;5.63;4.70;;;34.80;34.90;;;;;;5078709;28;20396;-44
2022/05/20 12:52:17;;;;;;;7.20;5.70;;;35.00;34.70;;;;;;5078846;28;20848;-45
2022/05/20 12:54:48;;;;;;;5.40;4.40;;;35.20;34.80;;;;;;5060494;28;20807;-45
2022/05/20 12:57:24;;;;;;;6.23;4.63;;;35.20;34.60;;;;;;5076488;28;20412;-46
2022/05/20 13:00:03;;;;;;;6.23;5.00;;;35.40;34.80;;;;;;5058303;28;20401;-47
2022/05/20 13:02:35;;;;;;;5.93;5.07;;;35.50;34.50;;;;;;5059857;28;20439;-47
2022/05/20 13:05:12;;;;;;;5.57;4.83;;;35.30;34.50;;;;;;5076661;28;20439;-46
2022/05/20 13:07:39;;;;;;;6.10;4.90;;;35.20;35.00;;;;;;5075259;28;20871;-44
2022/05/20 13:10:25;;;;;;;7.23;4.13;;;35.10;33.90;;;;;;5074854;28;20434;-45
2022/05/20 13:13:05;;;;;;;7.07;4.90;;;34.80;33.80;;;;;;5073494;28;20776;-45
2022/05/20 13:15:35;;;;;;;6.93;4.87;;;35.00;34.40;;;;;;5074969;28;20421;-46
2022/05/20 13:18:10;;;;;;;7.80;4.43;;;35.10;32.80;;;;;;5057458;28;20422;-46
2022/05/20 13:20:37;;;;;;;6.40;4.63;;;34.80;33.20;;;;;;5076452;28;20411;-45
2022/05/20 13:23:06;;;;;;;4.90;4.40;;;34.80;32.80;;;;;;5043710;28;20430;-47
2022/05/20 13:25:32;;;;;;;5.50;4.63;;;34.90;33.60;;;;;;5059483;28;20390;-49
2022/05/20 13:27:59;;;;;;;4.57;4.17;;;34.90;33.60;;;;;;5075608;28;20420;-46
2022/05/20 13:30:31;;;;;;;5.07;4.57;;;34.70;33.00;;;;;;5056466;28;20417;-47
2022/05/20 13:33:06;;;;;;;5.03;4.37;;;34.40;33.60;;;;;;5074958;28;20502;-47
2022/05/20 13:35:49;;;;;;;6.13;4.73;;;34.60;33.60;;;;;;5040602;28;20427;-46
2022/05/20 13:38:14;;;;;;;7.50;4.63;;;34.60;33.30;;;;;;5074796;28;20477;-47
2022/05/20 13:40:41;;;;;;;8.60;4.10;;;34.60;33.60;;;;;;5074253;28;20848;-44
2022/05/20 13:43:15;;;;;;;6.60;4.70;;;34.60;34.20;;;;;;5040529;28;20529;-44
2022/05/20 13:51:16;;;;;;;10.20;5.17;;;35.00;33.40;;;;;;5073765;28;20858;-46
2022/05/20 13:53:42;;;;;;;7.87;4.53;;;34.40;33.40;;;;;;5055283;28;20458;-45
2022/05/20 13:56:12;;;;;;;5.40;4.83;;;34.30;34.10;;;;;;5057283;28;20477;-47